createdAt,value
2023-08-15T00:00:56.892Z,99344.91
2023-08-15T00:06:07.359Z,99349.40
2023-08-15T00:11:10.476Z,99357.10
2023-08-15T00:16:13.614Z,99355.98
2023-08-15T00:21:16.768Z,99357.29
2023-08-15T00:26:19.952Z,99353.70
2023-08-15T00:31:23.209Z,99350.16
2023-08-15T00:36:26.486Z,99347.20
2023-08-15T00:41:32.345Z,99347.43
2023-08-15T00:46:35.841Z,99346.10
2023-08-15T00:51:39.348Z,99344.91
2023-08-15T00:56:42.990Z,99343.04
2023-08-15T01:01:46.660Z,99343.96
2023-08-15T01:06:50.368Z,99340.23
2023-08-15T01:12:33.793Z,99339.20
2023-08-15T01:17:40.897Z,99338.79
2023-08-15T01:22:47.482Z,99337.01
2023-08-15T01:27:59.600Z,99337.95
2023-08-15T01:33:13.360Z,99343.27
2023-08-15T01:38:27.533Z,99337.19
2023-08-15T01:43:32.490Z,99338.02
2023-08-15T01:48:44.609Z,99334.19
2023-08-15T01:53:47.896Z,99338.34
2023-08-15T01:58:50.974Z,99341.11
2023-08-15T02:03:54.226Z,99339.77
2023-08-15T02:08:57.253Z,99338.82
2023-08-15T02:14:00.430Z,99337.77
2023-08-15T02:19:04.040Z,99339.13
2023-08-15T02:24:07.429Z,99341.70
2023-08-15T02:29:10.973Z,99342.92
2023-08-15T02:34:14.336Z,99339.48
2023-08-15T02:39:24.440Z,99347.77
2023-08-15T02:44:28.675Z,99348.92
2023-08-15T02:49:34.423Z,99354.85
2023-08-15T02:54:37.718Z,99355.96
2023-08-15T02:59:41.028Z,99355.70
2023-08-15T03:04:44.188Z,99362.34
2023-08-15T03:09:47.435Z,99364.73
2023-08-15T03:14:50.559Z,99371.58
2023-08-15T03:19:55.657Z,99373.90
2023-08-15T03:24:59.646Z,99375.45
2023-08-15T03:30:02.913Z,99376.31
2023-08-15T03:35:07.604Z,99381.36
2023-08-15T03:40:11.298Z,99381.42
2023-08-15T03:45:15.527Z,99384.37
2023-08-15T03:50:27.091Z,99383.44
2023-08-15T03:55:33.302Z,99375.63
2023-08-15T04:00:37.202Z,99372.80
2023-08-15T04:05:40.784Z,99377.96
2023-08-15T04:10:48.529Z,99377.58
2023-08-15T04:15:53.969Z,99378.52
2023-08-15T04:20:58.391Z,99378.63
2023-08-15T04:26:01.835Z,99376.71
2023-08-15T04:31:05.225Z,99378.70
2023-08-15T04:36:08.654Z,99379.15
2023-08-15T04:41:12.116Z,99382.27
2023-08-15T04:46:15.673Z,99385.84
2023-08-15T04:51:18.936Z,99385.88
2023-08-15T04:56:25.086Z,99388.08
2023-08-15T05:01:46.124Z,99389.19
2023-08-15T05:06:49.512Z,99391.86
2023-08-15T05:11:52.746Z,99393.54
2023-08-15T05:16:56.709Z,99395.23
2023-08-15T05:22:01.591Z,99398.53
2023-08-15T05:27:05.920Z,99401.70
2023-08-15T05:32:09.539Z,99399.29
2023-08-15T05:37:12.870Z,99396.27
2023-08-15T05:42:19.172Z,99402.85
2023-08-15T05:47:22.950Z,99405.53
2023-08-15T05:52:27.868Z,99404.27
2023-08-15T05:57:31.032Z,99397.74
2023-08-15T06:02:36.571Z,99403.21
2023-08-15T06:07:39.909Z,99404.90
2023-08-15T06:12:43.003Z,99407.70
2023-08-15T06:17:46.324Z,99400.45
2023-08-15T06:22:58.745Z,99398.41
2023-08-15T06:28:02.556Z,99397.15
2023-08-15T06:33:05.918Z,99402.71
2023-08-15T06:38:09.072Z,99400.13
2023-08-15T06:43:12.290Z,99398.44
2023-08-15T06:48:16.178Z,99401.33
2023-08-15T06:53:20.006Z,99402.80
2023-08-15T06:58:23.805Z,99396.98
2023-08-15T07:03:27.308Z,99402.80
2023-08-15T07:08:30.688Z,99399.45
2023-08-15T07:13:33.984Z,99410.75
2023-08-15T07:18:37.326Z,99414.61
2023-08-15T07:23:41.658Z,99411.69
2023-08-15T07:33:39.128Z,99414.98
2023-08-15T07:38:42.560Z,99411.73
2023-08-15T07:43:46.285Z,99413.58
2023-08-15T07:48:49.767Z,99417.05
2023-08-15T07:53:56.622Z,99414.55
2023-08-15T07:59:04.563Z,99414.18
2023-08-15T08:04:10.739Z,99409.73
2023-08-15T08:09:15.157Z,99404.64
2023-08-15T08:14:18.559Z,99403.16
2023-08-15T08:19:25.838Z,99402.36
2023-08-15T08:24:30.273Z,99399.98
2023-08-15T08:29:33.655Z,99395.92
2023-08-15T08:34:40.923Z,99398.31
2023-08-15T08:39:45.053Z,99395.52
2023-08-15T08:44:49.510Z,99390.23
2023-08-15T08:49:55.423Z,99387.31
2023-08-15T08:55:00.528Z,99385.54
2023-08-15T09:00:16.664Z,99386.84
2023-08-15T09:05:23.366Z,99383.45
2023-08-15T09:10:31.388Z,99380.95
2023-08-15T09:15:35.620Z,99378.35
2023-08-15T09:20:48.154Z,99373.30
2023-08-15T09:25:57.527Z,99369.65
2023-08-15T09:31:05.983Z,99366.16
2023-08-15T09:36:10.821Z,99363.89
2023-08-15T09:41:14.588Z,99360.30
2023-08-15T09:46:20.073Z,99358.53
2023-08-15T09:51:25.443Z,99354.84
2023-08-15T09:56:28.689Z,99350.71
2023-08-15T10:01:32.503Z,99343.23
2023-08-15T10:06:35.796Z,99337.80
2023-08-15T10:11:45.403Z,99331.54
2023-08-15T10:16:49.578Z,99319.74
2023-08-15T10:21:54.400Z,99318.48
2023-08-15T12:45:30.682Z,99249.11
2023-08-15T12:50:34.210Z,99247.64
2023-08-15T12:55:37.348Z,99242.42
2023-08-15T13:00:42.906Z,99244.30
2023-08-15T13:05:50.594Z,99240.88
2023-08-15T13:10:54.193Z,99238.19
2023-08-15T13:15:57.556Z,99243.13
2023-08-15T13:21:00.853Z,99236.61
2023-08-15T13:26:04.168Z,99229.34
2023-08-15T13:31:07.341Z,99224.36
2023-08-15T13:36:24.280Z,99220.77
2023-08-15T13:41:39.910Z,99228.19
2023-08-15T13:46:46.602Z,99220.23
2023-08-15T13:51:50.075Z,99220.94
2023-08-15T13:56:55.633Z,99214.83
2023-08-15T14:01:59.330Z,99212.06
2023-08-15T14:07:02.525Z,99214.26
2023-08-15T14:12:06.003Z,99206.95
2023-08-15T14:17:09.423Z,99205.62
2023-08-15T14:22:12.854Z,99201.67
2023-08-15T14:27:18.282Z,99194.27
2023-08-15T14:32:25.869Z,99192.48
2023-08-15T14:37:29.369Z,99193.42
2023-08-15T14:42:32.808Z,99188.30
2023-08-15T14:47:36.502Z,99184.83
2023-08-15T14:52:43.571Z,99181.91
2023-08-15T15:27:09.993Z,99178.32
2023-08-15T15:32:13.406Z,99178.20
2023-08-15T15:37:16.811Z,99178.67
2023-08-15T15:42:20.505Z,99173.84
2023-08-15T15:47:24.286Z,99169.85
2023-08-15T15:52:27.693Z,99164.80
2023-08-15T15:57:31.051Z,99153.42
2023-08-15T16:02:34.238Z,99150.31
2023-08-15T16:07:37.675Z,99148.75
2023-08-15T16:12:41.016Z,99144.72
2023-08-15T16:17:46.182Z,99144.92
2023-08-15T16:22:49.320Z,99145.08
2023-08-15T16:27:52.739Z,99147.21
2023-08-15T16:32:55.985Z,99150.71
2023-08-15T16:37:59.355Z,99148.33
2023-08-15T16:43:13.406Z,99146.95
2023-08-15T16:48:16.698Z,99144.58
2023-08-15T16:53:20.116Z,99138.32
2023-08-15T16:58:23.611Z,99136.55
2023-08-15T17:03:27.030Z,99132.38
2023-08-15T17:08:30.582Z,99130.52
2023-08-15T17:13:33.749Z,99130.05
2023-08-15T17:18:36.832Z,99128.48
2023-08-15T17:23:41.288Z,99125.54
2023-08-15T17:28:52.837Z,99123.52
2023-08-15T17:33:56.187Z,99124.81
2023-08-15T17:38:59.395Z,99129.27
2023-08-15T17:44:02.761Z,99131.14
2023-08-15T17:49:05.826Z,99127.55
2023-08-15T17:54:10.643Z,99132.64
2023-08-15T17:59:35.199Z,99131.17
2023-08-15T18:04:38.289Z,99140.25
2023-08-15T18:09:41.706Z,99145.95
2023-08-15T18:14:45.191Z,99153.16
2023-08-15T18:19:50.595Z,99161.63
2023-08-15T18:24:53.883Z,99168.29
2023-08-15T18:29:57.444Z,99174.59
2023-08-15T18:35:00.766Z,99180.20
2023-08-15T18:40:05.034Z,99186.95
2023-08-15T18:45:10.155Z,99191.66
2023-08-15T18:50:13.383Z,99195.42
2023-08-15T18:55:16.657Z,99197.30
2023-08-15T19:00:21.921Z,99203.11
2023-08-15T19:05:25.467Z,99205.66
2023-08-15T19:10:28.811Z,99212.35
2023-08-15T19:15:32.199Z,99213.29
2023-08-15T19:20:35.524Z,99209.23
2023-08-15T19:25:38.835Z,99213.45
2023-08-15T19:30:43.859Z,99217.92
2023-08-15T19:35:48.182Z,99215.23
2023-08-15T19:40:51.636Z,99215.65
2023-08-15T19:45:57.400Z,99213.08
2023-08-15T19:51:00.564Z,99221.48
2023-08-15T19:56:04.038Z,99221.76
2023-08-15T20:01:07.322Z,99224.27
2023-08-15T20:06:10.409Z,99229.19
2023-08-15T20:11:14.462Z,99225.77
2023-08-15T20:16:17.780Z,99226.66
2023-08-15T20:21:21.411Z,99230.03
2023-08-15T20:26:25.051Z,99230.58
2023-08-15T20:31:28.514Z,99231.98
2023-08-15T20:36:32.193Z,99232.16
2023-08-15T20:41:35.446Z,99232.02
2023-08-15T20:46:41.521Z,99239.31
2023-08-15T20:51:45.021Z,99233.20
2023-08-15T20:56:48.500Z,99232.73
2023-08-15T21:01:51.948Z,99238.22
2023-08-15T21:06:55.201Z,99241.92
2023-08-15T21:11:58.263Z,99239.70
2023-08-15T21:17:02.945Z,99236.44
2023-08-15T21:27:12.655Z,99231.70
2023-08-15T21:32:15.860Z,99235.11
2023-08-15T21:37:18.990Z,99231.34
2023-08-15T21:42:22.318Z,99225.29
2023-08-15T21:47:25.661Z,99220.29
2023-08-15T21:52:28.792Z,99218.90
2023-08-15T21:57:32.148Z,99221.51
2023-08-15T22:02:35.287Z,99229.20
2023-08-15T22:07:38.432Z,99234.58
2023-08-15T22:12:44.006Z,99234.60
2023-08-15T22:17:54.591Z,99234.42
2023-08-15T22:23:04.691Z,99235.41
2023-08-15T22:28:07.893Z,99240.55
2023-08-15T22:33:11.032Z,99239.09
2023-08-15T22:38:14.233Z,99239.13
2023-08-15T22:43:17.748Z,99240.62
2023-08-15T22:48:22.972Z,99242.50
2023-08-15T22:53:26.271Z,99242.54
2023-08-15T22:58:29.776Z,99241.13
2023-08-15T23:25:57.124Z,99224.48
2023-08-15T23:31:00.353Z,99227.83
2023-08-15T23:36:03.978Z,99228.43
2023-08-15T23:41:07.102Z,99225.44
2023-08-15T23:46:10.479Z,99228.67
2023-08-15T23:51:13.874Z,99230.27
2023-08-15T23:56:17.047Z,99235.19
